Terminal Aerodrome Forecast
Issued by NWS Sterling, VA

Home | Current Version | Previous Version | Text Only | Print | Product List | Glossary On
Versions: 1 2 3 4 5 6 7 8 9 10 11 12
000
FTUS41 KLWX 311100
TAFMRB
TAF
KMRB 311126Z 3112/0112 VRB03KT P6SM SCT080
     FM311500 25007KT P6SM SCT060
     FM010000 VRB03KT P6SM BKN060=

USA.gov is the U.S. government's official web portal to all federal, state and local government web resources and services.